• Join FlightAware (Why Join?)
  • Login
  • US Flag 
01:13AM EDT


 

Airport Tracker/Info


-or-


 

Live Flight TrackerFlight Track Log ✈ N1926A ✈ 10-May-2013 ✈ KMSP - 41A

Flight Track Log - Related Links

Times and Time Zones

All times are in EDT time to prevent confusion due to time zone crossing. See the N1926A flight status page for this flight to view local times or setup timezone preferences in your user account.

Time Position Orientation Groundspeed Altitude Reporting Facility
EDT Latitude Longitude Course Direction KTS MPH feet Rate Location/Type
11:54AM 44.9000 -93.2667 245° Southwest 161 185 2,800  Level Minneapolis TRACON
11:54AM 44.8894 -93.2983 245° Southwest 169 194 3,700 1,800 Climbing Minneapolis Center
11:55AM 44.8644 -93.3469 234° Southwest 182 209 5,700 2,160 Climbing Minneapolis Center
11:56AM 44.8111 -93.3294 167° South 167 192 8,200 2,160 Climbing Minneapolis Center
11:57AM 44.7706 -93.2961 150° Southeast 171 197 10,200 1,500 Climbing Minneapolis Center
11:58AM 44.7261 -93.2581 149° Southeast 195 224 11,300 1,260 Climbing Minneapolis Center
12:00PM 44.6758 -93.2161 149° Southeast 213 245 12,900 1,620 Climbing Minneapolis Center
12:01PM 44.6147 -93.1625 148° Southeast 217 250 14,800 1,560 Climbing Minneapolis Center
12:02PM 44.5589 -93.1181 150° Southeast 230 265 16,200 1,380 Climbing Minneapolis Center
12:03PM 44.5039 -93.0725 149° Southeast 231 266 17,700 1,500 Climbing Minneapolis Center
12:04PM 44.4381 -93.0225 152° Southeast 226 260 19,400 1,440 Climbing Minneapolis Center
12:05PM 44.3806 -92.9828 154° Southeast 230 265 20,700 1,200 Climbing Minneapolis Center
12:06PM 44.3231 -92.9456 155° Southeast 230 265 21,900 1,020 Climbing Minneapolis Center
12:07PM 44.2633 -92.9089 156° South 232 267 22,900 960 Climbing Minneapolis Center
12:08PM 44.2039 -92.8694 155° Southeast 236 272 23,900 1,020 Climbing Minneapolis Center
12:09PM 44.1231 -92.8092 152° Southeast 236 272 25,300 960 Climbing Minneapolis Center
12:10PM 44.0653 -92.7633 150° Southeast 237 273 26,200 780 Climbing Minneapolis Center
12:11PM 44.0067 -92.7194 152° Southeast 238 274 27,000 360 Climbing Minneapolis Center
12:12PM 43.9458 -92.6758 153° Southeast 243 280 27,000  Level Minneapolis Center
12:13PM 43.8919 -92.6372 153° Southeast 259 298 27,000  Level Minneapolis Center
12:14PM 43.8064 -92.5786 154° Southeast 275 316 27,000  Level Minneapolis Center
12:15PM 43.7342 -92.5331 155° Southeast 283 326 27,000  Level Minneapolis Center
12:16PM 43.6503 -92.4744 153° Southeast 285 328 27,000  Level Minneapolis Center
12:17PM 43.5942 -92.4353 153° Southeast 284 327 27,000  Level Minneapolis Center
12:18PM 43.5128 -92.3742 151° Southeast 279 321 27,000  Level Minneapolis Center
12:19PM 43.4433 -92.3242 152° Southeast 282 325 27,000  Level Minneapolis Center
12:20PM 43.3731 -92.2753 153° Southeast 284 327 27,000  Level Minneapolis Center
12:21PM 43.2886 -92.2167 153° Southeast 285 328 27,000  Level Minneapolis Center
12:23PM 43.2203 -92.1664 152° Southeast 283 326 27,000  Level Minneapolis Center
12:24PM 43.1356 -92.1058 152° Southeast 285 328 27,000  Level Minneapolis Center
12:25PM 43.0669 -92.0542 151° Southeast 285 328 27,000  Level Minneapolis Center
12:26PM 42.9972 -92.0036 152° Southeast 284 327 27,000  Level Minneapolis Center
12:27PM 42.9158 -91.9489 154° Southeast 280 322 27,000  Level Minneapolis Center
12:28PM 42.8456 -91.9036 155° Southeast 283 326 27,000  Level Minneapolis Center
12:29PM 42.7761 -91.8583 154° Southeast 282 325 27,000  Level Minneapolis Center
12:30PM 42.7064 -91.8150 155° Southeast 282 325 27,000  Level Minneapolis Center
12:31PM 42.6233 -91.7606 154° Southeast 283 326 27,000  Level Minneapolis Center
12:31PM 42.5953 -91.7414 153° Southeast 283 326 27,000  Level Chicago Center
12:33PM 42.5267 -91.6939 153° Southeast 282 325 27,000  Level Chicago Center
12:34PM 42.4428 -91.6364 153° Southeast 284 327 27,000  Level Chicago Center
12:35PM 42.3728 -91.5869 152° Southeast 284 327 27,000  Level Chicago Center
12:36PM 42.3033 -91.5386 153° Southeast 283 326 27,000  Level Chicago Center
12:37PM 42.2333 -91.4911 153° Southeast 281 323 27,000  Level Chicago Center
12:38PM 42.1639 -91.4447 154° Southeast 280 322 27,000  Level Chicago Center
12:39PM 42.0792 -91.3875 153° Southeast 284 327 27,000  Level Chicago Center
12:40PM 42.0094 -91.3433 155° Southeast 281 323 27,000  Level Chicago Center
12:41PM 41.9394 -91.2981 154° Southeast 279 321 27,000  Level Chicago Center
12:42PM 41.8692 -91.2508 153° Southeast 281 323 27,000  Level Chicago Center
12:43PM 41.7997 -91.2056 154° Southeast 279 321 27,000  Level Chicago Center
12:44PM 41.7147 -91.1503 154° Southeast 283 326 27,000  Level Chicago Center
12:45PM 41.6450 -91.1039 154° Southeast 283 326 27,000  Level Chicago Center
12:46PM 41.5756 -91.0550 152° Southeast 283 326 27,000  Level Chicago Center
12:47PM 41.5047 -91.0083 154° Southeast 284 327 27,000  Level Chicago Center
12:48PM 41.4192 -90.9533 154° Southeast 288 331 27,000  Level Chicago Center
12:49PM 41.3486 -90.9061 153° Southeast 284 327 27,000  Level Chicago Center
12:50PM 41.2767 -90.8608 155° Southeast 286 329 27,000  Level Chicago Center
12:51PM 41.2061 -90.8164 155° Southeast 284 327 27,000  Level Chicago Center
12:52PM 41.1356 -90.7700 154° Southeast 283 326 27,000  Level Chicago Center
12:53PM 41.0522 -90.7156 154° Southeast 282 325 27,000  Level Chicago Center
12:54PM 40.9917 -90.6786 155° Southeast 281 323 27,000  Level Chicago Center
12:55PM 40.9075 -90.6244 154° Southeast 281 323 27,000  Level Chicago Center
12:56PM 40.8381 -90.5797 154° Southeast 280 322 27,000  Level Chicago Center
12:57PM 40.7700 -90.5347 153° Southeast 277 319 27,000  Level Chicago Center
12:58PM 40.7014 -90.4903 154° Southeast 276 318 27,000  Level Chicago Center
12:59PM 40.6331 -90.4469 154° Southeast 276 318 27,000  Level Chicago Center
01:00PM 40.5519 -90.3942 154° Southeast 275 316 27,000  Level Chicago Center
01:01PM 40.4825 -90.3508 155° Southeast 277 319 27,000  Level Chicago Center
01:03PM 40.4142 -90.3089 155° Southeast 275 316 27,000  Level Chicago Center
01:04PM 40.3444 -90.2664 155° Southeast 277 319 27,000  Level Chicago Center
01:05PM 40.2761 -90.2236 154° Southeast 275 316 27,000  Level Chicago Center
01:06PM 40.1928 -90.1742 156° South 276 318 27,000  Level Chicago Center
01:07PM 40.1236 -90.1306 154° Southeast 278 320 27,000  Level Chicago Center
01:08PM 40.0553 -90.0872 154° Southeast 276 318 27,000  Level Chicago Center
01:09PM 39.9881 -90.0431 153° Southeast 274 315 27,000  Level Chicago Center
01:10PM 39.9186 -89.9978 153° Southeast 277 319 27,000  Level Chicago Center
01:11PM 39.8361 -89.9439 153° Southeast 279 321 27,000  Level Chicago Center
01:11PM 39.8189 -89.9361 161° South 278 320 27,000  Level Kansas City Center
01:12PM 39.7486 -89.8911 154° Southeast 279 321 27,000  Level Kansas City Center
01:13PM 39.6644 -89.8414 156° South 278 320 27,000  Level Kansas City Center
01:14PM 39.5936 -89.8000 156° South 278 320 27,000  Level Kansas City Center
01:15PM 39.5225 -89.7583 156° South 281 323 27,000  Level Kansas City Center
01:16PM 39.4525 -89.7153 155° Southeast 280 322 27,000  Level Kansas City Center
01:17PM 39.3803 -89.6706 154° Southeast 285 328 27,000  Level Kansas City Center
01:18PM 39.3100 -89.6278 155° Southeast 281 323 27,000  Level Kansas City Center
01:19PM 39.2233 -89.5756 155° Southeast 284 327 27,000  Level Kansas City Center
01:20PM 39.1500 -89.5322 155° Southeast 279 321 27,000  Level Kansas City Center
01:22PM 39.0808 -89.4911 155° Southeast 275 316 27,000  Level Kansas City Center
01:23PM 39.0067 -89.4461 155° Southeast 274 315 27,000  Level Kansas City Center
01:24PM 38.9381 -89.4053 155° Southeast 272 313 27,000  Level Kansas City Center
01:25PM 38.8644 -89.3603 155° Southeast 273 314 27,000  Level Kansas City Center
01:26PM 38.7961 -89.3181 154° Southeast 273 314 27,000  Level Kansas City Center
01:27PM 38.7228 -89.2728 154° Southeast 272 313 27,000  Level Kansas City Center
01:28PM 38.6547 -89.2306 154° Southeast 272 313 27,000  Level Kansas City Center
01:29PM 38.5858 -89.1933 157° South 269 310 27,000  Level Kansas City Center
01:30PM 38.5106 -89.1572 159° South 268 308 27,000  Level Kansas City Center
01:31PM 38.4411 -89.1192 157° South 271 312 27,000  Level Kansas City Center
01:32PM 38.3672 -89.0731 154° Southeast 275 316 27,000  Level Kansas City Center
01:33PM 38.2989 -89.0297 154° Southeast 274 315 27,000  Level Kansas City Center
01:34PM 38.2353 -88.9822 150° Southeast 272 313 27,000  Level Kansas City Center
01:35PM 38.1658 -88.9383 154° Southeast 274 315 27,000  Level Kansas City Center
01:36PM 38.0967 -88.8961 154° Southeast 276 318 27,000  Level Kansas City Center
01:37PM 38.0267 -88.8547 155° Southeast 275 316 27,000  Level Kansas City Center
01:38PM 37.9567 -88.8153 156° South 276 318 27,000  Level Kansas City Center
01:39PM 37.8725 -88.7686 156° South 274 315 27,000  Level Kansas City Center
01:40PM 37.8033 -88.7308 157° South 274 315 27,000  Level Kansas City Center
01:41PM 37.7358 -88.6922 156° South 275 316 27,000  Level Kansas City Center
01:42PM 37.6533 -88.6433 155° Southeast 274 315 27,000  Level Kansas City Center
01:43PM 37.5989 -88.6164 159° South 278 320 27,000  Level Memphis Center
01:44PM 37.5336 -88.5786 155° Southeast 278 320 27,000  Level Memphis Center
01:45PM 37.4642 -88.5358 154° Southeast 278 320 27,000  Level Memphis Center
01:46PM 37.3950 -88.4983 157° South 273 314 27,000  Level Memphis Center
01:47PM 37.3361 -88.4631 155° Southeast 273 314 27,000  Level Memphis Center
01:48PM 37.2689 -88.4256 156° South 273 314 27,000  Level Memphis Center
01:49PM 37.1994 -88.3856 155° Southeast 273 314 27,000  Level Memphis Center
01:50PM 37.1342 -88.3431 153° Southeast 273 314 27,000  Level Memphis Center
01:51PM 37.0647 -88.3031 155° Southeast 278 320 27,000  Level Memphis Center
01:52PM 36.9975 -88.2686 158° South 273 314 27,000  Level Memphis Center
01:53PM 36.9283 -88.2314 157° South 273 314 27,000  Level Memphis Center
01:54PM 36.8589 -88.1944 157° South 273 314 27,000  Level Memphis Center
01:55PM 36.7894 -88.1547 155° Southeast 273 314 27,000  Level Memphis Center
01:56PM 36.7092 -88.1053 154° Southeast 280 322 27,000  Level Memphis Center
01:57PM 36.6378 -88.0683 157° South 285 328 27,000  Level Memphis Center
01:58PM 36.5681 -88.0264 154° Southeast 280 322 27,000  Level Memphis Center
01:59PM 36.4986 -87.9872 156° South 280 322 27,000  Level Memphis Center
02:00PM 36.4228 -87.9456 156° South 280 322 27,000  Level Memphis Center
02:01PM 36.3511 -87.9064 156° South 280 322 27,000  Level Memphis Center
02:02PM 36.2794 -87.8675 156° South 280 322 27,000  Level Memphis Center
02:03PM 36.2119 -87.8308 156° South 280 322 27,000  Level Memphis Center
02:04PM 36.1383 -87.7894 156° South 285 328 27,000  Level Memphis Center
02:05PM 36.0644 -87.7508 157° South 285 328 27,000  Level Memphis Center
02:06PM 35.9906 -87.7094 156° South 285 328 27,000  Level Memphis Center
02:07PM 35.9147 -87.6683 156° South 290 334 27,000  Level Memphis Center
02:08PM 35.8408 -87.6272 156° South 295 339 27,000  Level Memphis Center
02:09PM 35.7689 -87.5861 155° Southeast 295 339 27,000  Level Memphis Center
02:10PM 35.6928 -87.5428 155° Southeast 295 339 27,000  Level Memphis Center
02:11PM 35.6169 -87.5019 156° South 295 339 27,000  Level Memphis Center
02:12PM 35.5344 -87.4564 156° South 295 339 27,000  Level Memphis Center
02:13PM 35.4606 -87.4181 157° South 295 339 27,000  Level Memphis Center
02:14PM 35.3867 -87.3800 157° South 295 339 27,000  Level Memphis Center
02:15PM 35.3128 -87.3419 157° South 295 339 27,000  Level Memphis Center
02:16PM 35.2386 -87.3014 156° South 295 339 27,000  Level Memphis Center
02:17PM 35.1669 -87.2608 155° Southeast 295 339 27,000  Level Memphis Center
02:18PM 35.0886 -87.2181 156° South 302 348 27,000  Level Memphis Center
02:20PM 34.9717 -87.1489 154° Southeast 276 318 27,000  Level Atlanta Center
02:21PM 34.8975 -87.1106 157° South 276 318 27,000  Level Atlanta Center
02:22PM 34.8275 -87.0728 156° South 276 318 27,000  Level Atlanta Center
02:23PM 34.7575 -87.0372 157° South 276 318 27,000  Level Atlanta Center
02:24PM 34.6875 -86.9994 156° South 276 318 27,000  Level Atlanta Center
02:25PM 34.6172 -86.9642 158° South 271 312 27,000  Level Atlanta Center
02:26PM 34.5494 -86.9264 155° Southeast 271 312 27,000  Level Atlanta Center
02:27PM 34.4814 -86.8889 156° South 271 312 27,000 -300 Level Atlanta Center
02:28PM 34.4092 -86.8486 155° Southeast 271 312 26,500 -540 Descending Atlanta Center
02:29PM 34.3369 -86.8136 158° South 276 318 26,000 -420 Descending Atlanta Center
02:30PM 34.2647 -86.7786 158° South 276 318 25,700 -540 Descending Atlanta Center
02:31PM 34.1903 -86.7408 157° South 276 318 25,000 -600 Descending Atlanta Center
02:32PM 34.1183 -86.7011 155° Southeast 286 329 24,500 -540 Descending Atlanta Center
02:33PM 34.0439 -86.6611 156° South 291 335 24,000 -480 Descending Atlanta Center
02:34PM 33.9717 -86.6214 155° Southeast 291 335 23,600 -420 Descending Atlanta Center
02:35PM 33.8994 -86.5817 155° Southeast 291 335 23,200 -420 Descending Atlanta Center
02:36PM 33.8272 -86.5419 155° Southeast 291 335 22,800 -840 Descending Atlanta Center
02:37PM 33.7528 -86.5047 157° South 291 335 21,600 -1,260 Descending Atlanta Center
02:38PM 33.6744 -86.4675 158° South 291 335 20,300 -1,380 Descending Atlanta Center
02:39PM 33.5936 -86.4278 158° South 296 341 18,900 -1,320 Descending Atlanta Center
02:40PM 33.5172 -86.3908 158° South 301 346 17,700 -1,260 Descending Atlanta Center
02:41PM 33.4406 -86.3514 157° South 301 346 16,400 -1,320 Descending Atlanta Center
02:42PM 33.3683 -86.3097 154° Southeast 301 346 15,100 -1,380 Descending Atlanta Center
02:43PM 33.2981 -86.2756 158° South 290 334 13,700 -1,500 Descending Atlanta Center
02:44PM 33.2300 -86.2342 153° Southeast 279 321 12,100 -1,500 Descending Atlanta Center
02:45PM 33.1636 -86.2028 158° South 267 307 10,700 -1,500 Descending Atlanta Center
02:46PM 33.1017 -86.1739 159° South 257 296 9,100 -1,740 Descending Atlanta Center
02:47PM 33.0375 -86.1425 158° South 251 289 7,300 -1,680 Descending Atlanta Center
02:48PM 32.9711 -86.1114 159° South 251 289 5,800 -1,200 Descending Atlanta Center
02:49PM 32.9069 -86.0825 159° South 251 289 4,900 -480 Descending Atlanta Center
02:50PM 32.8447 -86.0589 162° South 251 289 4,900  Level Atlanta Center
02:54PM 32.7231 -85.9871 154° Southeast  Level FlightAware Approximate
03:01PM 32.5149 -85.8762 157° South  Level Estimated
03:02PM 32.5149 -85.8762 157° South  Level Estimated
03:03PM 32.5149 -85.8762 157° South  Level Estimated
03:04PM 32.5149 -85.8762 157° South  Level Estimated
03:05PM 32.5149 -85.8762 157° South  Level Estimated
03:06PM 32.5149 -85.8762 157° South  Level Estimated